Time;durP1;ratioP1;P1;durP2;ratioP2;P2;SDS_P1;SDS_P2;PMS_P1;PMS_P2;Temp;Humidity;BMP_temperature;BMP_pressure;BME280_temperature;BME280_humidity;BME280_pressure;Samples;Min_cycle;Max_cycle;Signal;HPM_P1;HPM_P2
2022/01/19 00:01:31;;;;;;;17.37;5.82;;;;;;;3.18;55.40;101648.16;4396732;32;33303;-77
2022/01/19 00:04:04;;;;;;;20.12;7.07;;;;;;;3.41;54.70;101638.28;4384132;32;32213;-77
2022/01/19 00:06:32;;;;;;;20.50;6.00;;;;;;;3.41;54.64;101632.00;4396500;32;34325;-77
2022/01/19 00:09:08;;;;;;;18.77;5.28;;;;;;;3.29;54.95;101636.50;4396181;32;32551;-76
2022/01/19 00:11:38;;;;;;;19.45;6.35;;;;;;;2.69;56.66;101644.59;4396321;32;31618;-77
2022/01/19 00:14:09;;;;;;;17.50;5.47;;;;;;;2.88;56.09;101645.84;4396394;32;33821;-77
2022/01/19 00:16:40;;;;;;;21.48;6.20;;;;;;;2.83;56.45;101645.31;4396266;32;33365;-77
2022/01/19 00:19:16;;;;;;;18.67;5.90;;;;;;;2.83;56.33;101650.75;4396332;32;34186;-77
2022/01/19 00:21:45;;;;;;;19.85;5.93;;;;;;;2.52;57.08;101652.09;4409539;32;33171;-77
2022/01/19 00:24:15;;;;;;;17.48;5.93;;;;;;;2.56;57.08;101650.03;4385615;32;33030;-77
2022/01/19 00:26:48;;;;;;;14.18;5.85;;;;;;;2.64;57.00;101647.63;4411243;32;34202;-76
2022/01/19 00:29:22;;;;;;;16.05;6.22;;;;;;;2.78;56.54;101654.78;4397815;32;33638;-77
2022/01/19 00:31:53;;;;;;;17.95;6.15;;;;;;;2.73;56.71;101665.06;4410692;32;34058;-76
2022/01/19 00:34:21;;;;;;;18.52;7.00;;;;;;;2.77;56.51;101678.31;4398311;32;32125;-76
2022/01/19 00:36:54;;;;;;;18.85;7.82;;;;;;;2.89;56.24;101679.25;4398676;32;35453;-77
2022/01/19 00:39:32;;;;;;;20.12;6.18;;;;;;;2.96;56.08;101677.84;4398192;32;33534;-76
2022/01/19 00:42:03;;;;;;;14.80;5.78;;;;;;;2.73;56.51;101678.63;4410646;32;32689;-77
2022/01/19 00:44:33;;;;;;;16.95;6.22;;;;;;;2.76;56.36;101679.28;4410804;32;34368;-77
2022/01/19 00:47:04;;;;;;;15.82;5.57;;;;;;;2.85;56.16;101678.63;4385632;32;33016;-77
2022/01/19 00:49:34;;;;;;;20.25;6.93;;;;;;;2.84;56.21;101679.59;4410772;32;34588;-76
2022/01/19 00:52:02;;;;;;;21.75;6.72;;;;;;;2.84;56.36;101686.88;4398476;32;33368;-76
2022/01/19 00:54:36;;;;;;;18.52;6.47;;;;;;;2.79;56.40;101687.19;4398241;32;33674;-76
2022/01/19 00:57:07;;;;;;;19.17;7.25;;;;;;;2.85;56.29;101691.31;4411007;32;35107;-77
2022/01/19 00:59:40;;;;;;;30.98;14.38;;;;;;;2.82;56.17;101686.97;4410655;32;33505;-77
2022/01/19 01:02:11;;;;;;;17.23;7.25;;;;;;;2.82;55.72;101689.69;4410591;32;33375;-77
2022/01/19 01:04:41;;;;;;;17.45;6.53;;;;;;;2.70;56.18;101670.72;4410696;32;34453;-76
2022/01/19 01:07:14;;;;;;;20.55;7.00;;;;;;;2.84;55.74;101668.75;4410685;32;35232;-77
2022/01/19 01:09:48;;;;;;;22.45;6.85;;;;;;;2.69;56.21;101680.69;4385778;32;33347;-76
2022/01/19 01:12:31;;;;;;;19.90;7.12;;;;;;;2.67;56.39;101677.22;4385676;32;32832;-76
2022/01/19 01:20:36;;;;;;;13.73;6.00;;;;;;;2.60;56.44;101655.09;4399401;32;33616;-76
2022/01/19 01:23:07;;;;;;;18.10;6.50;;;;;;;2.52;56.55;101657.53;4410318;32;33154;-76
2022/01/19 01:25:38;;;;;;;18.20;6.25;;;;;;;2.64;56.29;101653.03;4424582;32;33885;-76
2022/01/19 01:28:11;;;;;;;15.38;5.30;;;;;;;2.49;56.62;101651.47;4397800;32;33025;-76
2022/01/19 01:30:42;;;;;;;15.68;5.75;;;;;;;2.63;56.44;101649.47;4397930;32;33297;-76
2022/01/19 01:33:11;;;;;;;14.55;5.45;;;;;;;2.69;56.25;101640.03;4397803;32;34030;-77
2022/01/19 01:35:44;;;;;;;21.35;6.40;;;;;;;2.51;56.57;101633.25;4398127;32;33500;-76
2022/01/19 01:38:15;;;;;;;15.10;5.82;;;;;;;2.35;56.95;101616.34;4397739;32;34030;-77
2022/01/19 01:41:08;;;;;;;16.87;5.62;;;;;;;2.25;57.18;101611.56;4412804;32;32618;-77
2022/01/19 01:43:43;;;;;;;18.60;6.28;;;;;;;2.40;56.87;101622.31;4410728;32;34174;-77
2022/01/19 01:46:31;;;;;;;17.60;5.67;;;;;;;2.53;56.59;101613.19;4398561;32;34453;-77
2022/01/19 01:49:09;;;;;;;16.45;6.37;;;;;;;2.56;56.42;101610.25;4400031;32;34620;-76
2022/01/19 01:54:29;;;;;;;20.80;5.82;;;;;;;2.41;56.90;101608.66;4399630;32;32707;-76
2022/01/19 01:56:56;;;;;;;21.40;6.03;;;;;;;2.31;57.26;101605.72;4397890;32;34543;-77
2022/01/19 01:59:27;;;;;;;12.77;5.65;;;;;;;2.34;57.13;101609.19;4423221;32;34347;-77
2022/01/19 02:01:58;;;;;;;16.98;6.20;;;;;;;2.36;56.96;101602.69;4410612;32;34193;-77
2022/01/19 02:04:31;;;;;;;21.55;6.20;;;;;;;2.38;57.03;101611.56;4398239;32;33217;-77
2022/01/19 02:09:54;;;;;;;18.40;6.53;;;;;;;2.04;58.04;101588.72;4410110;32;32732;-76
2022/01/19 02:23:55;;;;;;;13.55;5.00;;;;;;;2.34;57.26;101590.22;4412026;32;33846;-76
2022/01/19 02:26:47;;;;;;;18.77;5.60;;;;;;;2.39;57.14;101579.94;4398504;32;33517;-77
2022/01/19 02:30:08;;;;;;;18.58;6.20;;;;;;;2.44;56.89;101567.78;4409792;32;32393;-77
2022/01/19 02:40:51;;;;;;;22.20;6.12;;;;;;;2.41;56.86;101562.59;4423011;32;34497;-76
2022/01/19 02:43:24;;;;;;;17.48;5.37;;;;;;;2.48;56.68;101566.59;4396955;32;34018;-76
2022/01/19 02:51:33;;;;;;;14.35;5.80;;;;;;;2.40;56.64;101560.84;4399916;32;32150;-76
2022/01/19 02:54:12;;;;;;;14.05;5.62;;;;;;;2.45;56.31;101547.84;4409925;32;34374;-76
2022/01/19 02:56:46;;;;;;;17.50;6.20;;;;;;;2.26;56.67;101551.00;4411952;32;33556;-76
2022/01/19 02:59:23;;;;;;;15.77;5.65;;;;;;;2.16;56.91;101543.66;4410507;32;33960;-76
2022/01/19 03:10:36;;;;;;;18.50;6.93;;;;;;;1.86;56.89;101544.88;4375657;32;32696;-76
2022/01/19 03:13:10;;;;;;;24.58;7.55;;;;;;;1.85;56.99;101537.72;4397114;32;32432;-76
2022/01/19 03:15:38;;;;;;;20.55;7.62;;;;;;;1.96;57.06;101545.91;4409995;32;34476;-76
2022/01/19 03:18:06;;;;;;;16.77;6.28;;;;;;;1.92;57.24;101527.31;4409778;32;33928;-76
2022/01/19 03:20:38;;;;;;;18.23;7.18;;;;;;;2.00;57.44;101524.91;4423242;32;33228;-76
2022/01/19 03:23:17;;;;;;;17.70;6.07;;;;;;;1.97;57.29;101519.72;4397001;32;33039;-76
2022/01/19 03:25:47;;;;;;;19.23;6.47;;;;;;;1.95;57.40;101527.09;4409250;32;33818;-76
2022/01/19 03:28:15;;;;;;;19.17;6.60;;;;;;;2.01;57.16;101518.53;4409495;32;33666;-76
2022/01/19 03:30:44;;;;;;;15.57;6.82;;;;;;;1.95;57.07;101516.28;4409548;32;33067;-76
2022/01/19 03:33:16;;;;;;;19.85;6.20;;;;;;;2.13;56.53;101512.22;4384392;32;33167;-76
2022/01/19 03:35:45;;;;;;;15.63;6.22;;;;;;;1.93;56.91;101526.34;4396989;32;33846;-76
2022/01/19 03:38:13;;;;;;;18.15;6.40;;;;;;;1.83;57.08;101517.16;4397250;32;33896;-76
2022/01/19 03:40:41;;;;;;;17.15;7.05;;;;;;;1.78;57.16;101513.88;4409271;32;33174;-76
2022/01/19 03:43:12;;;;;;;17.03;5.70;;;;;;;1.71;57.23;101518.88;4409301;32;34570;-76
2022/01/19 03:45:50;;;;;;;15.88;7.37;;;;;;;1.80;57.10;101518.22;4423062;32;35013;-76
2022/01/19 03:51:08;;;;;;;14.98;5.62;;;;;;;1.89;56.70;101522.13;4411189;32;34073;-76
2022/01/19 03:53:39;;;;;;;14.25;5.47;;;;;;;1.87;56.56;101524.06;4409236;32;34477;-76
2022/01/19 03:56:10;;;;;;;23.05;6.28;;;;;;;1.90;56.12;101513.03;4397877;32;33960;-76
2022/01/19 03:58:38;;;;;;;16.52;6.35;;;;;;;1.82;56.17;101516.28;4410962;32;34133;-75
2022/01/19 04:01:10;;;;;;;17.17;5.93;;;;;;;1.64;56.76;101523.84;4398597;32;31934;-75
2022/01/19 04:06:20;;;;;;;17.85;6.35;;;;;;;1.74;56.43;101531.31;4410905;32;32911;-76
2022/01/19 04:08:48;;;;;;;15.82;5.97;;;;;;;1.60;56.63;101521.44;4423739;32;34712;-76
2022/01/19 04:11:21;;;;;;;17.12;6.12;;;;;;;1.78;56.21;101522.00;4411607;32;33937;-76
2022/01/19 04:16:35;;;;;;;17.85;6.50;;;;;;;1.50;56.73;101521.22;4399833;32;33299;-76
2022/01/19 04:19:21;;;;;;;13.18;6.20;;;;;;;1.33;57.25;101529.63;4398266;32;32572;-76
2022/01/19 04:21:53;;;;;;;18.80;6.43;;;;;;;1.56;56.82;101523.50;4424439;32;33363;-76
2022/01/19 04:24:23;;;;;;;17.70;6.87;;;;;;;1.73;56.29;101519.62;4411204;32;34009;-75
2022/01/19 04:29:38;;;;;;;18.33;7.35;;;;;;;1.35;56.90;101508.75;4413106;32;35112;-76
2022/01/19 04:32:13;;;;;;;18.60;6.87;;;;;;;1.24;57.40;101504.09;4423628;32;33205;-76
2022/01/19 04:34:43;;;;;;;19.12;6.05;;;;;;;1.43;57.17;101506.38;4398279;32;33688;-76
2022/01/19 05:07:05;;;;;;;27.73;11.68;;;;;;;1.37;56.26;101492.41;4422313;32;33790;-76
2022/01/19 05:14:57;;;;;;;20.30;8.05;;;;;;;1.13;57.08;101478.75;4410332;32;31843;-79
2022/01/19 05:17:25;;;;;;;20.42;6.90;;;;;;;1.05;57.28;101484.69;4410480;32;33869;-75
2022/01/19 05:19:53;;;;;;;27.62;7.68;;;;;;;1.01;57.32;101485.88;4409973;32;33865;-74
2022/01/19 05:22:24;;;;;;;19.62;7.35;;;;;;;0.90;57.57;101477.63;4397819;32;33603;-75
2022/01/19 05:25:01;;;;;;;23.63;8.50;;;;;;;0.96;57.89;101485.31;4397688;32;32463;-73
2022/01/19 05:27:36;;;;;;;18.95;7.80;;;;;;;1.08;62.76;101476.38;4411115;32;34288;-76
2022/01/19 05:30:05;;;;;;;21.55;8.52;;;;;;;1.55;63.42;101486.59;4410753;32;34485;-74
2022/01/19 05:32:34;;;;;;;19.87;8.27;;;;;;;1.43;59.23;101476.63;4397753;32;32584;-74
2022/01/19 05:35:02;;;;;;;22.77;7.87;;;;;;;1.06;57.89;101475.59;4409983;32;34025;-75
2022/01/19 05:37:36;;;;;;;18.00;7.22;;;;;;;0.88;57.92;101490.38;4397648;32;31808;-76
2022/01/19 05:40:09;;;;;;;18.00;6.80;;;;;;;0.99;57.57;101482.41;4397998;32;33076;-74
2022/01/19 05:42:42;;;;;;;20.87;7.50;;;;;;;0.83;57.89;101477.16;4422726;32;32274;-74
2022/01/19 05:45:10;;;;;;;22.65;6.70;;;;;;;0.84;57.74;101484.28;4410539;32;32674;-74
2022/01/19 05:47:37;;;;;;;20.37;7.35;;;;;;;1.16;56.87;101483.97;4410400;32;34731;-74
2022/01/19 05:50:08;;;;;;;19.33;6.62;;;;;;;1.09;56.89;101482.66;4422697;32;34394;-75
2022/01/19 05:52:36;;;;;;;21.40;7.20;;;;;;;1.07;56.86;101480.03;4410230;32;34602;-74
2022/01/19 05:55:04;;;;;;;17.65;6.80;;;;;;;1.03;56.92;101472.25;4410611;32;33236;-74
2022/01/19 05:57:34;;;;;;;15.97;7.00;;;;;;;0.99;56.88;101469.75;4409798;32;32117;-75
2022/01/19 06:00:05;;;;;;;20.60;9.15;;;;;;;0.33;58.72;101470.56;4397986;32;34170;-75
2022/01/19 06:02:39;;;;;;;18.70;8.07;;;;;;;0.78;57.42;101486.53;4410287;32;32683;-75
2022/01/19 06:05:10;;;;;;;21.05;8.23;;;;;;;0.87;57.02;101483.22;4421817;32;34063;-75
2022/01/19 06:07:45;;;;;;;23.13;8.03;;;;;;;0.96;59.03;101488.88;4410698;32;34690;-74
2022/01/19 06:10:42;;;;;;;17.77;7.17;;;;;;;0.70;59.57;101488.88;4410837;32;34439;-75
2022/01/19 06:13:05;;;;;;;17.98;7.45;;;;;;;0.78;58.71;101479.28;4424256;32;34848;-75
2022/01/19 06:15:33;;;;;;;17.85;7.85;;;;;;;0.81;57.90;101487.19;4408372;32;33217;-75
2022/01/19 06:18:03;;;;;;;15.95;6.45;;;;;;;0.66;57.93;101485.50;4408072;32;32272;-77
2022/01/19 06:20:31;;;;;;;19.73;7.35;;;;;;;0.51;57.93;101482.03;4396167;32;34499;-76
2022/01/19 06:23:06;;;;;;;21.70;7.87;;;;;;;0.45;58.31;101481.56;4395880;32;33805;-76
2022/01/19 06:25:38;;;;;;;22.40;9.43;;;;;;;0.56;58.06;101481.72;4395645;32;33187;-77
2022/01/19 06:28:09;;;;;;;48.63;21.77;;;;;;;0.58;57.71;101487.87;4383991;32;33085;-75
2022/01/19 06:30:37;;;;;;;28.50;11.53;;;;;;;0.64;57.40;101487.47;4409933;32;34775;-76
2022/01/19 06:33:08;;;;;;;26.70;10.17;;;;;;;0.78;56.92;101492.81;4382697;32;33732;-76
2022/01/19 06:35:42;;;;;;;27.25;11.52;;;;;;;0.67;61.85;101484.53;4410338;32;33069;-75
2022/01/19 06:38:10;;;;;;;36.22;13.13;;;;;;;0.77;64.36;101493.78;4408585;32;33709;-76
2022/01/19 06:40:43;;;;;;;24.63;11.03;;;;;;;0.81;61.39;101480.94;4407775;32;33235;-75
2022/01/19 06:43:11;;;;;;;28.85;11.12;;;;;;;0.77;59.02;101482.97;4422864;32;33462;-75
2022/01/19 06:45:39;;;;;;;27.37;10.50;;;;;;;0.48;58.76;101486.75;4396421;32;32955;-75
2022/01/19 06:48:07;;;;;;;22.90;9.67;;;;;;;0.49;58.41;101480.38;4409623;32;33655;-75
2022/01/19 06:50:35;;;;;;;24.37;10.00;;;;;;;0.71;57.71;101482.50;4409699;32;35175;-76
2022/01/19 06:53:03;;;;;;;21.95;8.60;;;;;;;0.58;58.09;101475.25;4409861;32;33686;-75
2022/01/19 06:55:31;;;;;;;19.00;8.70;;;;;;;0.68;58.10;101474.59;4422464;32;33965;-76
2022/01/19 06:58:11;;;;;;;25.62;9.90;;;;;;;0.77;57.52;101480.25;4422221;32;33655;-75
2022/01/19 07:00:48;;;;;;;25.23;10.47;;;;;;;0.71;57.59;101477.97;4409416;32;33853;-76
2022/01/19 07:03:16;;;;;;;25.03;11.33;;;;;;;0.86;57.07;101470.69;4423477;32;34597;-76
2022/01/19 07:05:44;;;;;;;24.02;12.40;;;;;;;0.53;58.41;101465.72;4422246;32;33598;-76
2022/01/19 07:08:15;;;;;;;43.60;18.77;;;;;;;0.65;57.97;101462.19;4410303;32;34201;-75
2022/01/19 07:10:43;;;;;;;45.43;19.60;;;;;;;0.81;57.57;101459.31;4409660;32;34227;-75
2022/01/19 07:13:12;;;;;;;44.47;18.93;;;;;;;0.70;57.77;101465.44;4422058;32;34616;-75
2022/01/19 07:15:40;;;;;;;34.40;16.13;;;;;;;0.70;57.64;101462.72;4409646;32;34197;-76
2022/01/19 07:18:11;;;;;;;36.83;17.45;;;;;;;0.89;67.94;101452.41;4410083;32;33439;-75
2022/01/19 07:20:41;;;;;;;50.33;20.83;;;;;;;0.94;63.31;101457.50;4397155;32;35054;-76
2022/01/19 07:23:10;;;;;;;44.57;21.80;;;;;;;0.74;60.25;101453.44;4409295;32;34482;-76
2022/01/19 07:25:38;;;;;;;44.38;22.42;;;;;;;0.90;58.61;101451.44;4422439;32;33462;-76
2022/01/19 07:28:08;;;;;;;48.80;20.40;;;;;;;0.99;57.91;101445.41;4409465;32;34489;-75
2022/01/19 07:30:41;;;;;;;47.13;19.62;;;;;;;0.97;57.51;101435.69;4421033;32;35442;-75
2022/01/19 07:33:09;;;;;;;59.63;25.13;;;;;;;0.71;58.51;101447.37;4384434;32;32977;-75
2022/01/19 07:35:37;;;;;;;58.45;24.58;;;;;;;0.64;58.91;101434.31;4409185;32;32083;-76
2022/01/19 07:38:08;;;;;;;65.07;27.42;;;;;;;0.68;58.90;101440.34;4422440;32;34633;-75
2022/01/19 07:40:36;;;;;;;61.88;24.08;;;;;;;1.02;58.01;101425.41;4409100;32;34936;-76
2022/01/19 07:43:04;;;;;;;58.97;24.98;;;;;;;1.03;57.79;101413.63;4396078;32;33982;-75
2022/01/19 07:45:33;;;;;;;58.77;26.47;;;;;;;1.19;57.34;101419.72;4384627;32;31809;-75
2022/01/19 07:48:04;;;;;;;68.03;27.03;;;;;;;1.13;57.79;101420.16;4392198;32;33767;-75
2022/01/19 07:50:45;;;;;;;66.47;28.00;;;;;;;0.98;58.12;101419.34;4396785;32;32733;-75
2022/01/19 07:53:15;;;;;;;49.57;23.43;;;;;;;0.73;58.58;101413.88;4384082;32;34695;-75
2022/01/19 07:55:45;;;;;;;42.00;17.83;;;;;;;0.83;58.56;101414.13;4423022;32;33439;-77
2022/01/19 07:58:14;;;;;;;36.78;16.55;;;;;;;0.99;58.22;101415.69;4408816;32;32980;-76
2022/01/19 08:00:47;;;;;;;28.43;14.77;;;;;;;0.95;58.24;101416.87;4422383;32;34654;-75
2022/01/19 08:03:26;;;;;;;31.37;15.17;;;;;;;1.04;58.16;101417.22;4409902;32;32355;-76
2022/01/19 08:05:56;;;;;;;32.80;14.93;;;;;;;1.21;57.95;101425.03;4408695;32;31921;-76
2022/01/19 08:08:24;;;;;;;32.55;13.98;;;;;;;1.23;58.08;101414.97;4421812;32;33642;-76
2022/01/19 08:10:52;;;;;;;37.50;14.33;;;;;;;1.26;58.05;101420.16;4409132;32;35261;-76
2022/01/19 08:13:23;;;;;;;24.25;11.82;;;;;;;1.19;58.34;101416.16;4396349;32;34551;-76
2022/01/19 08:15:52;;;;;;;35.88;14.07;;;;;;;1.19;58.99;101408.91;4409164;32;33257;-76
2022/01/19 08:18:20;;;;;;;28.05;12.88;;;;;;;1.30;59.09;101395.47;4408611;32;32355;-76
2022/01/19 08:20:49;;;;;;;24.63;10.73;;;;;;;1.32;59.33;101406.19;4422393;32;34253;-76
2022/01/19 08:23:18;;;;;;;27.40;12.93;;;;;;;1.42;59.22;101411.81;4408907;32;33838;-76
2022/01/19 08:25:50;;;;;;;27.77;12.82;;;;;;;1.44;59.34;101396.34;4409170;32;33480;-76
2022/01/19 08:28:20;;;;;;;28.85;14.13;;;;;;;1.50;59.42;101394.06;4396021;32;32253;-76
2022/01/19 08:30:48;;;;;;;34.53;14.48;;;;;;;1.60;59.24;101391.56;4395961;32;32998;-75
2022/01/19 08:33:17;;;;;;;33.17;14.23;;;;;;;1.74;58.86;101394.16;4392954;32;33130;-76
2022/01/19 08:35:45;;;;;;;30.58;13.98;;;;;;;1.79;58.56;101396.53;4393578;32;34243;-76
2022/01/19 08:38:27;;;;;;;28.83;14.63;;;;;;;1.75;58.75;101395.87;4407041;32;34644;-76
2022/01/19 08:40:56;;;;;;;31.37;15.52;;;;;;;1.83;59.10;101393.50;4393734;32;34712;-76
2022/01/19 08:43:27;;;;;;;31.60;16.20;;;;;;;1.67;59.86;101402.81;4408623;32;33869;-76
2022/01/19 08:45:56;;;;;;;30.77;14.60;;;;;;;1.79;59.53;101396.53;4395592;32;33088;-76
2022/01/19 08:48:25;;;;;;;34.90;15.07;;;;;;;1.69;60.04;101396.31;4395913;32;33811;-77
2022/01/19 08:50:58;;;;;;;28.33;13.07;;;;;;;1.86;60.09;101404.09;4383416;32;33996;-77
2022/01/19 08:53:28;;;;;;;23.43;12.13;;;;;;;1.89;59.82;101403.00;4383209;32;33692;-76
2022/01/19 08:55:59;;;;;;;25.27;11.65;;;;;;;1.86;60.41;101397.81;4394972;32;32934;-76
2022/01/19 08:58:27;;;;;;;22.35;11.23;;;;;;;1.95;60.14;101387.16;4395652;32;34404;-76
2022/01/19 09:00:56;;;;;;;23.03;11.33;;;;;;;2.14;59.96;101391.22;4395691;32;34528;-76
2022/01/19 09:03:28;;;;;;;22.15;10.32;;;;;;;2.23;59.82;101394.13;4395214;32;32521;-76
2022/01/19 09:05:59;;;;;;;29.77;10.32;;;;;;;2.23;59.66;101388.69;4383059;32;33485;-76
2022/01/19 09:08:27;;;;;;;29.05;10.65;;;;;;;2.17;59.95;101383.75;4394922;32;32195;-74
2022/01/19 09:10:58;;;;;;;24.50;8.65;;;;;;;2.24;59.71;101381.44;4383615;32;34465;-76
2022/01/19 09:13:28;;;;;;;24.77;10.18;;;;;;;2.61;65.74;101385.81;4396216;32;34708;-76
2022/01/19 09:15:56;;;;;;;26.92;9.98;;;;;;;2.67;63.95;101387.19;4383389;32;33271;-76
2022/01/19 09:18:24;;;;;;;27.05;9.52;;;;;;;2.65;61.92;101381.00;4408148;32;33756;-76
2022/01/19 09:20:51;;;;;;;24.92;10.05;;;;;;;2.67;61.07;101381.75;4396023;32;33175;-76
2022/01/19 09:23:19;;;;;;;26.00;9.32;;;;;;;2.75;60.48;101382.03;4408410;32;34103;-76
2022/01/19 09:25:47;;;;;;;23.30;9.35;;;;;;;2.80;60.00;101387.13;4395721;32;33284;-77
2022/01/19 09:28:15;;;;;;;24.70;9.88;;;;;;;2.84;59.79;101383.19;4408563;32;34655;-76
2022/01/19 09:30:45;;;;;;;20.30;8.93;;;;;;;2.55;60.46;101383.59;4396130;32;34795;-76
2022/01/19 09:33:20;;;;;;;23.48;9.68;;;;;;;2.77;59.86;101380.09;4395490;32;34654;-76
2022/01/19 09:36:29;;;;;;;25.65;10.80;;;;;;;2.90;59.58;101374.59;4409038;32;33395;-76
2022/01/19 09:38:42;;;;;;;22.05;9.18;;;;;;;2.98;59.47;101372.16;4396418;32;33914;-77
2022/01/19 09:41:12;;;;;;;19.62;9.68;;;;;;;3.04;59.53;101373.50;4395864;32;35201;-77
2022/01/19 09:43:42;;;;;;;20.08;9.57;;;;;;;3.15;59.13;101369.00;4409033;32;34256;-77
2022/01/19 09:46:10;;;;;;;23.62;9.82;;;;;;;2.88;59.86;101363.00;4395446;32;33411;-77
2022/01/19 09:48:41;;;;;;;24.63;10.25;;;;;;;3.02;59.69;101360.06;4395108;32;33685;-77
2022/01/19 09:51:09;;;;;;;21.67;9.48;;;;;;;3.00;59.79;101358.47;4407891;32;35282;-77
2022/01/19 09:53:37;;;;;;;18.83;8.73;;;;;;;2.97;59.78;101354.12;4382608;32;35076;-77
2022/01/19 09:56:05;;;;;;;21.05;10.25;;;;;;;3.09;59.42;101339.63;4395551;32;33297;-76
2022/01/19 09:58:33;;;;;;;24.52;9.38;;;;;;;3.29;58.72;101336.19;4395290;32;33623;-77
2022/01/19 10:01:01;;;;;;;33.25;12.70;;;;;;;3.34;58.55;101335.81;4402712;32;34331;-77
2022/01/19 10:03:33;;;;;;;21.80;9.20;;;;;;;3.34;58.34;101324.97;4370450;32;32997;-77
2022/01/19 10:06:02;;;;;;;22.17;9.32;;;;;;;3.54;58.06;101316.09;4395169;32;34262;-77
2022/01/19 10:08:44;;;;;;;20.90;10.07;;;;;;;3.64;57.68;101311.63;4408947;32;33578;-76
2022/01/19 10:17:02;;;;;;;23.62;10.15;;;;;;;3.58;57.35;101285.00;4397274;32;34173;-77
2022/01/19 10:19:42;;;;;;;31.52;10.00;;;;;;;3.61;57.32;101294.72;4395401;32;33859;-77
2022/01/19 10:22:10;;;;;;;25.23;9.85;;;;;;;3.58;57.40;101276.84;4395151;32;34344;-77
2022/01/19 10:25:03;;;;;;;29.83;12.02;;;;;;;3.89;56.91;101274.34;4407559;32;33463;-77
2022/01/19 10:27:34;;;;;;;26.05;10.82;;;;;;;3.86;57.24;101269.16;4395476;32;33349;-77
2022/01/19 10:30:04;;;;;;;23.35;9.88;;;;;;;4.11;56.26;101266.09;4407651;32;32293;-77
2022/01/19 10:32:36;;;;;;;20.75;9.98;;;;;;;4.21;56.20;101261.59;4407506;32;32884;-77
2022/01/19 10:35:32;;;;;;;27.20;10.88;;;;;;;4.16;56.16;101242.09;4401835;32;34393;-77
2022/01/19 10:38:18;;;;;;;29.55;11.73;;;;;;;4.44;55.48;101253.34;4387178;32;32039;-77
2022/01/19 10:40:55;;;;;;;20.17;8.93;;;;;;;4.38;55.49;101238.44;4408809;32;34456;-76
2022/01/19 10:43:44;;;;;;;22.33;9.52;;;;;;;4.44;55.38;101227.03;4407512;32;34127;-77
2022/01/19 10:46:15;;;;;;;19.00;8.48;;;;;;;4.57;55.16;101230.41;4382573;32;32534;-76
2022/01/19 10:48:45;;;;;;;38.75;14.85;;;;;;;4.70;54.44;101224.75;4394988;32;31934;-76
2022/01/19 10:51:19;;;;;;;33.70;14.98;;;;;;;4.64;54.41;101214.41;4383027;32;33700;-74
2022/01/19 10:54:06;;;;;;;29.52;11.60;;;;;;;4.74;54.70;101212.63;4381809;32;34053;-74
2022/01/19 10:56:35;;;;;;;;;;;;;;;4.81;54.05;101204.78;4407660;32;33312;-74
2022/01/19 10:59:06;;;;;;;31.35;8.43;;;;;;;5.01;53.38;101205.75;4394878;32;32624;-74
2022/01/19 11:01:46;;;;;;;20.10;8.88;;;;;;;5.29;53.05;101196.81;4395065;32;34364;-75
2022/01/19 11:04:25;;;;;;;19.10;8.45;;;;;;;5.20;53.02;101193.06;4406990;32;34622;-75
2022/01/19 11:07:01;;;;;;;26.08;10.10;;;;;;;5.32;52.79;101180.22;4394566;32;32529;-75
2022/01/19 11:09:33;;;;;;;25.70;9.82;;;;;;;5.33;52.26;101172.91;4408451;32;33358;-75
2022/01/19 11:12:11;;;;;;;22.13;9.32;;;;;;;5.55;52.00;101176.25;4408541;32;33829;-74
2022/01/19 11:14:40;;;;;;;21.65;8.75;;;;;;;5.65;51.84;101169.97;4382454;32;33064;-76
2022/01/19 11:17:28;;;;;;;24.58;8.60;;;;;;;5.68;52.04;101162.37;4386904;32;34528;-75
2022/01/19 11:20:02;;;;;;;18.17;7.87;;;;;;;5.84;51.71;101154.53;4382309;32;33498;-76
2022/01/19 11:22:54;;;;;;;22.23;7.60;;;;;;;5.96;51.40;101147.06;4379754;32;33953;-76
2022/01/19 11:26:01;;;;;;;16.52;7.35;;;;;;;6.02;50.58;101140.19;4406890;32;34658;-76
2022/01/19 11:28:33;;;;;;;17.87;6.67;;;;;;;6.00;50.03;101142.19;4407057;32;34626;-75
2022/01/19 11:31:08;;;;;;;17.05;7.35;;;;;;;6.09;50.20;101133.16;4407069;32;34291;-76
2022/01/19 11:33:58;;;;;;;19.62;7.50;;;;;;;6.28;49.88;101123.09;4408055;32;32829;-76
2022/01/19 11:36:31;;;;;;;16.02;7.07;;;;;;;5.97;49.86;101116.09;4370168;32;33558;-75
2022/01/19 11:39:21;;;;;;;20.92;6.90;;;;;;;6.38;59.69;101114.03;4395695;32;33764;-75
2022/01/19 11:42:00;;;;;;;19.33;7.70;;;;;;;6.62;51.02;101109.78;4393464;32;34254;-75
2022/01/19 11:44:33;;;;;;;22.08;8.05;;;;;;;6.61;49.80;101099.00;4379820;32;33820;-75
2022/01/19 11:47:08;;;;;;;17.85;7.68;;;;;;;6.59;49.35;101098.28;4406948;32;35229;-74
2022/01/19 11:49:47;;;;;;;17.27;7.90;;;;;;;6.72;49.32;101095.25;4407944;32;33778;-76
2022/01/19 11:52:19;;;;;;;18.73;8.23;;;;;;;6.91;49.04;101087.84;4394632;32;33252;-76
2022/01/19 11:54:51;;;;;;;16.17;8.63;;;;;;;6.86;48.94;101101.06;4394671;32;32997;-75
2022/01/19 11:57:26;;;;;;;21.27;9.23;;;;;;;6.47;49.88;101088.59;4406565;32;35063;-76
2022/01/19 11:59:55;;;;;;;18.65;8.43;;;;;;;6.44;49.77;101087.03;4381461;32;33489;-75
2022/01/19 12:02:33;;;;;;;20.00;7.87;;;;;;;6.52;50.04;101087.13;4407783;32;33844;-75
2022/01/19 12:05:26;;;;;;;21.00;7.22;;;;;;;6.58;49.43;101072.88;4393963;32;32341;-76
2022/01/19 12:08:03;;;;;;;15.35;6.15;;;;;;;6.62;49.54;101079.78;4395738;32;34275;-76
2022/01/19 12:10:36;;;;;;;16.55;6.50;;;;;;;6.63;49.55;101067.00;4409028;32;33732;-76
2022/01/19 12:16:52;;;;;;;20.08;7.87;;;;;;;6.68;49.28;101058.34;4398778;32;34003;-76
2022/01/19 12:19:06;;;;;;;17.15;6.30;;;;;;;6.86;49.27;101040.19;4412495;32;35253;-76
2022/01/19 12:21:34;;;;;;;13.32;6.37;;;;;;;6.74;48.78;101053.16;4411088;32;33995;-76
2022/01/19 12:24:29;;;;;;;15.43;6.35;;;;;;;6.61;49.17;101049.91;4396125;32;31886;-78
2022/01/19 12:27:02;;;;;;;18.48;7.05;;;;;;;6.72;48.89;101044.25;4396866;32;34432;-78
2022/01/19 12:29:33;;;;;;;14.32;6.05;;;;;;;6.66;49.33;101050.31;4396102;32;35467;-76
2022/01/19 12:32:10;;;;;;;16.48;5.78;;;;;;;6.64;48.76;101038.69;4408409;32;32479;-76
2022/01/19 12:34:44;;;;;;;16.83;5.97;;;;;;;6.62;48.64;101032.53;4406212;32;34919;-75
2022/01/19 12:37:14;;;;;;;14.00;5.97;;;;;;;6.71;48.62;101033.50;4409838;32;34518;-76
2022/01/19 12:39:49;;;;;;;17.60;5.57;;;;;;;6.71;48.65;101023.44;4396162;32;34240;-76
2022/01/19 12:42:27;;;;;;;16.33;5.60;;;;;;;6.29;49.21;101025.81;4396245;32;34004;-76
2022/01/19 12:44:59;;;;;;;13.90;6.47;;;;;;;6.48;49.01;101019.41;4396434;32;33015;-76
2022/01/19 12:47:27;;;;;;;12.02;6.37;;;;;;;6.51;48.90;101017.22;4398530;32;33681;-75
2022/01/19 12:50:03;;;;;;;13.80;6.37;;;;;;;6.59;60.08;101011.00;4424201;32;34389;-76
2022/01/19 12:52:33;;;;;;;15.32;5.95;;;;;;;6.69;52.07;101003.66;4410635;32;32963;-76
2022/01/19 12:55:11;;;;;;;15.35;6.10;;;;;;;6.47;49.46;101006.78;4422114;32;33289;-76
2022/01/19 12:57:39;;;;;;;14.73;6.00;;;;;;;6.44;49.17;101001.66;4410726;32;34522;-76
2022/01/19 13:00:09;;;;;;;18.35;6.62;;;;;;;6.64;48.70;100991.47;4410678;32;35167;-76
2022/01/19 13:02:39;;;;;;;18.73;7.57;;;;;;;6.72;48.72;100977.94;4423336;32;34121;-76
2022/01/19 13:05:13;;;;;;;20.40;7.03;;;;;;;6.57;48.79;100981.16;4410875;32;33330;-76
2022/01/19 13:07:46;;;;;;;14.80;7.10;;;;;;;6.93;48.20;100982.09;4410509;32;32227;-76
2022/01/19 13:13:05;;;;;;;12.20;5.47;;;;;;;6.76;49.20;100974.75;4410623;32;34038;-76
2022/01/19 13:16:01;;;;;;;15.55;6.68;;;;;;;6.81;48.78;100964.22;4422211;32;32832;-76
2022/01/19 13:18:36;;;;;;;15.40;6.07;;;;;;;6.90;48.79;100952.41;4410889;32;34492;-76
2022/01/19 13:21:18;;;;;;;21.73;7.03;;;;;;;6.79;49.00;100960.81;4411209;32;35189;-76
2022/01/19 13:23:57;;;;;;;18.05;7.75;;;;;;;6.70;49.38;100959.00;4397894;32;32509;-76
2022/01/19 13:26:40;;;;;;;12.93;7.43;;;;;;;6.79;48.97;100955.34;4410542;32;32669;-76
2022/01/19 13:29:15;;;;;;;16.45;7.15;;;;;;;6.78;48.98;100956.34;4397401;32;33727;-76
2022/01/19 13:31:54;;;;;;;21.42;7.22;;;;;;;6.71;49.32;100947.06;4410643;32;35119;-76
2022/01/19 13:34:28;;;;;;;20.80;7.53;;;;;;;6.62;49.11;100950.72;4397724;32;33430;-76